Aviation Digital Data Service (ADDS)

Output produced by METARs form (1752 UTC 24 March 2017)
found at http://www.aviationweather.gov/adds/metars/
 
UTAA 241700Z 31013KT 7000 -RA OVC017 06/05 Q1025 R30L/290055 NOSIG
TAF UTAA 241630Z 2418/2518 34010G20KT 3000 -RA BKN008 SCT030CB 530009 
     TEMPO 2418/2505 30018KT 1500 BR RA OVC002 
     PROB40 
     TEMPO 2418/2506 VRB26KT TS
       
UTAK 241700Z 01004KT 9999 SOT050CB OVC100 07/06 Q1027 R34L/29//50 TEMPO 3000 -SHRA BR BKN005
TAF UTAK 241630Z 2418/2518 05016KT 6000 SCT007 BKN100 530009 
     TEMPO 2420/2423 33014KT 3000 -SHRA BR BKN003 SCT026CB OVC100 
     TEMPO 2423/2504 VRB04KT 0500 FG VV001 
     BECMG 2512/2518 CAVOK
       
UTAM 241700Z 32008KT 6000 -DZ OVC020 09/08 Q1023 NOSIG RMK 881///65
TAF UTAM 241635Z 2417/2518 35016KT 3000 BR -RA OVC007 SCT015CB 530001 
     TEMPO 2417/2424 31012G22KT 1500 BR -DZ OVC003 
     TEMPO 2500/2504 0800 FG -DZ OVC003 
     TEMPO 2506/2512 2000 BR RA BKN005 
     BECMG 2515/2517 02010KT 3000 BR BKN010
       
UTAT 241700Z 02008KT 9999 OVC022 07/04 Q1025 R08/CLRD70 NOSIG
TAF UTAT 241642Z 2418/2518 36016KT 5000 SCT030CB OVC050 530005 570500 
     TEMPO 2418/2424 03016KT 2000 SHRA OVC008 
     PROB40 
     TEMPO 2500/2506 VRB30KT 3000 -TSRA BKN005
       
UTAV 241700Z 36008KT 7000 FEW020CB SCT020 10/09 Q1021 NOSIG
TAF UTAV 241630Z 2418/2518 36014KT 5000 BKN020 SCT030CB 530003 
     TEMPO 2418/2424 30014KT 3000 BR -SHRA BKN008
       
UTDD 241730Z 00000MPS 9999 NSC 14/04 Q1019 R09/D NOSIG RMK QFE696/0928
TAF UTDD 241500Z 2416/2504 VRB02MPS 4000 HZ SCT050CB BKN100 
     TEMPO 2416/2504 27009G14MPS 1500 TSRA BR
       
UTDK 241730Z 00000MPS 9999 NSC 15/09 Q1019 R01/09//70 RMK QFE706/0942
TAF UTDK 241500Z 2416/2501 03005MPS 4000 HZ SCT050CB BKN100 
     TEMPO 2416/2501 21009G14MPS 1500 TSRA BR
       
UTDL 241730Z 24007MPS 9999 FEW040 SCT150 OVC200 13/09 Q1019 88CLRD70 NOSIG RMK QFE726/0969
TAF UTDL 241500Z 2416/2501 23008MPS 9999 FEW060CB BKN100 
     TEMPO 2416/2501 23009G14MPS 6000 -SHRA SCT050CB
       
UTDT 241730Z 11002MPS 9999 FEW/// SCT/// 16/09 Q1017 35CLRD70 RMK QFE723/0964
TAF UTDT 241500Z 2416/2501 VRB02MPS 3000 HZ SCT050CB BKN100 
     TEMPO 2416/2501 20009G14MPS 1500 TSRA BR
       
UTFA 241700Z 15003KT 9999 NSC 13/07 Q1019 R88/09//70
TAF UTFA 241500Z 2416/2501 24008KT 5000 BR SCT050CB 
     TEMPO 2416/2501 VRB02KT 2100 BR BKN030CB
       
UTFF 241600Z 16006KT 9999 NSC 13/09 Q1018 R18/CLRD70
TAF UTFF 241200Z 2413/2422 32008KT 9999 SCT050 
     TEMPO 2413/2420 VRB02KT 4000 BR BKN040CB
       
UTFN 241700Z 32006KT 9999 NSC 13/06 Q1018 R28/CLRD70 NOSIG
TAF UTFN 241700Z 2418/2518 34008KT 9999 SCT050CB 
     TEMPO 2418/2505 VRB02KT 5000 -SHRA BR BKN030CB
       
UTNN 241730Z 34006KT 9999 OVC030 05/02 Q1026 R33/CLRD60 NOSIG
TAF UTNN 241700Z 2418/2518 VRB04KT 9999 BKN033 BKN100 
     TEMPO 2420/2502 35010G20KT BKN020CB BKN100 
     TEMPO 2504/2512 04012G22KT
       
UTNU 241730Z 02008KT 6000 OVC023CB 06/02 Q1025 R31/CLRD70 NOSIG
TAF UTNU 241705Z 2418/2518 34010G20KT 6000 BKN020 OVC100 
     TEMPO 2418/2424 01012KT 3000 -SHRA BR BKN015CB
       
UTSA 241730Z 29004KT 9999 NSC 09/08 Q1018 R07/1///65 NOSIG
TAF UTSA 241701Z 2418/2518 VRB03KT 7000 FEW010 SCT040CB OVC100 
     TEMPO 2418/2506 36012G22KT 3000 -SHRA BR BKN005 OVC020CB
       
UTSB 241730Z 35010KT 9999 BKN008 09/07 Q1019 R01/CLRD70 NOSIG
TAF UTSB 241700Z 2418/2518 01008KT 7000 FEW010 SCT040CB OVC100 
     TEMPO 2418/2506 34012G22KT 3000 -SHRA BR BKN005 OVC020CB
       
UTSK 241730Z 35004KT CAVOK 12/10 Q1018 R16/CLRD70
TAF UTSK 241450Z 2416/2501 27010G20KT 5000 -SHRA BR SCT007 BKN033CB 
     TEMPO 2416/2501 VRB20G30KT 1000 TSRA BR BKN002 OVC020CB
       
UTSS 241730Z 08004KT 6000 FEW060CB 13/09 Q1019 R09/70D NOSIG
TAF UTSS 241700Z 2418/2518 30010G20KT 5000 -SHRA BR SCT007 BKN033CB 
     TEMPO 2418/2503 VRB20G30KT 0800 -TSRA FG BKN002 OVC020CB
       
UTST 241730Z 00000KT 9999 SCT066CB 15/11 Q1017 R88/CLRD70 NOSIG
TAF UTST 241700Z 2418/2518 23012G22KT 5000 HZ SCT050CB BKN100 
     TEMPO 2418/2424 24021G31KT 2000 TSRA DS BKN005 BKN040CB 
     TEMPO 2500/2512 25025G35KT 1000 TSRA DS BKN002 OVC040CB
       
UTTT 241730Z VRB02KT CAVOK 12/09 Q1019 R08R/CLRD70 NOSIG
TAF UTTT 241700Z 2418/2518 06010KT 7000 SCT050CB BKN100 
     TEMPO 2418/2504 VRB15G25KT 3000 -SHRA BR SCT007 BKN040CB OVC100 
     PROB40 
     TEMPO 2418/2504 TS BKN040CB
       
UTSB 241730Z 35010KT 9999 BKN008 09/07 Q1019 R01/CLRD70 NOSIG
TAF UTSB 241700Z 2418/2518 01008KT 7000 FEW010 SCT040CB OVC100 
     TEMPO 2418/2506 34012G22KT 3000 -SHRA BR BKN005 OVC020CB
       
UTSK 241730Z 35004KT CAVOK 12/10 Q1018 R16/CLRD70
TAF UTSK 241450Z 2416/2501 27010G20KT 5000 -SHRA BR SCT007 BKN033CB 
     TEMPO 2416/2501 VRB20G30KT 1000 TSRA BR BKN002 OVC020CB
       
UTSS 241730Z 08004KT 6000 FEW060CB 13/09 Q1019 R09/70D NOSIG
TAF UTSS 241700Z 2418/2518 30010G20KT 5000 -SHRA BR SCT007 BKN033CB 
     TEMPO 2418/2503 VRB20G30KT 0800 -TSRA FG BKN002 OVC020CB
       
UTST 241730Z 00000KT 9999 SCT066CB 15/11 Q1017 R88/CLRD70 NOSIG
TAF UTST 241700Z 2418/2518 23012G22KT 5000 HZ SCT050CB BKN100 
     TEMPO 2418/2424 24021G31KT 2000 TSRA DS BKN005 BKN040CB 
     TEMPO 2500/2512 25025G35KT 1000 TSRA DS BKN002 OVC040CB
       
UTNU 241730Z 02008KT 6000 OVC023CB 06/02 Q1025 R31/CLRD70 NOSIG
TAF UTNU 241705Z 2418/2518 34010G20KT 6000 BKN020 OVC100 
     TEMPO 2418/2424 01012KT 3000 -SHRA BR BKN015CB
       
UTTT 241730Z VRB02KT CAVOK 12/09 Q1019 R08R/CLRD70 NOSIG
TAF UTTT 241700Z 2418/2518 06010KT 7000 SCT050CB BKN100 
     TEMPO 2418/2504 VRB15G25KT 3000 -SHRA BR SCT007 BKN040CB OVC100 
     PROB40 
     TEMPO 2418/2504 TS BKN040CB